Terminal Aerodrome Forecast
Issued by NWS Tampa Bay Area, FL

Home | Current Version | Previous Version | Text Only | Print | Product List | Glossary On
Versions: 1 2 3 4 5 6 7 8 9 10 11 12 13 14 15 16
000
FTUS42 KTBW 171100
TAFFMY
TAF
KFMY 171128Z 1712/1812 VRB03KT P6SM VCSH SCT020 SCT090 OVC150
     FM171500 27008KT P6SM VCTS SCT020CB BKN090
     FM171800 27010KT P6SM VCTS SCT020CB BKN030
     FM180100 26005KT P6SM VCTS SCT050CB BKN080
     FM180400 VRB05KT P6SM VCSH SCT035 BKN100=

USA.gov is the U.S. government's official web portal to all federal, state and local government web resources and services.